createdAt,value
2019-01-31T00:00:47.333Z,3.60
2019-01-31T00:04:00.721Z,3.50
2019-01-31T00:07:15.554Z,3.60
2019-01-31T00:10:27.592Z,3.60
2019-01-31T00:13:37.471Z,3.60
2019-01-31T00:16:52.736Z,3.50
2019-01-31T00:20:09.330Z,3.50
2019-01-31T00:23:12.966Z,3.50
2019-01-31T00:26:16.581Z,3.50
2019-01-31T00:29:20.265Z,3.50
2019-01-31T00:32:17.792Z,3.50
2019-01-31T00:35:13.960Z,3.50
2019-01-31T00:38:20.470Z,3.50
2019-01-31T00:41:30.006Z,3.50
2019-01-31T00:44:44.291Z,3.40
2019-01-31T00:47:39.142Z,3.30
2019-01-31T00:50:51.056Z,3.30
2019-01-31T00:53:50.218Z,3.30
2019-01-31T00:56:47.590Z,3.40
2019-01-31T00:59:52.710Z,3.30
2019-01-31T01:03:12.442Z,3.40
2019-01-31T01:06:20.209Z,3.30
2019-01-31T01:09:19.888Z,3.20
2019-01-31T01:12:09.144Z,3.20
2019-01-31T01:15:11.207Z,3.20
2019-01-31T01:17:52.099Z,3.10
2019-01-31T01:20:49.795Z,3.10
2019-01-31T01:23:53.283Z,3.10
2019-01-31T01:26:52.061Z,3.10
2019-01-31T01:29:35.792Z,3.10
2019-01-31T01:32:31.042Z,3.20
2019-01-31T01:35:37.955Z,3.20
2019-01-31T01:38:54.295Z,3.20
2019-01-31T01:42:06.816Z,3.30
2019-01-31T01:45:26.532Z,3.30
2019-01-31T01:48:35.898Z,3.30
2019-01-31T01:51:24.839Z,3.30
2019-01-31T01:54:35.603Z,3.30
2019-01-31T01:57:29.853Z,3.20
2019-01-31T02:00:24.637Z,3.30
2019-01-31T02:03:51.344Z,3.30
2019-01-31T02:06:53.383Z,3.30
2019-01-31T02:10:00.042Z,3.30
2019-01-31T02:13:22.462Z,3.40
2019-01-31T02:16:26.350Z,3.40
2019-01-31T02:19:05.210Z,3.40
2019-01-31T02:22:09.201Z,3.40
2019-01-31T02:25:02.672Z,3.40
2019-01-31T02:28:31.325Z,3.40
2019-01-31T02:31:33.719Z,3.40
2019-01-31T02:34:38.343Z,3.40
2019-01-31T02:37:38.643Z,3.40
2019-01-31T02:40:36.415Z,3.40
2019-01-31T02:43:18.102Z,3.40
2019-01-31T02:46:31.660Z,3.40
2019-01-31T02:49:21.991Z,3.40
2019-01-31T02:52:07.480Z,3.40
2019-01-31T02:55:18.263Z,3.40
2019-01-31T02:58:12.178Z,3.40
2019-01-31T03:01:19.485Z,3.40
2019-01-31T03:04:31.322Z,3.40
2019-01-31T03:07:38.407Z,3.40
2019-01-31T03:10:39.490Z,3.40
2019-01-31T03:13:35.022Z,3.40
2019-01-31T03:16:29.532Z,3.40
2019-01-31T03:19:22.545Z,3.50
2019-01-31T03:22:21.482Z,3.50
2019-01-31T03:25:20.384Z,3.40
2019-01-31T03:28:11.456Z,3.40
2019-01-31T03:31:08.856Z,3.40
2019-01-31T03:34:33.070Z,3.40
2019-01-31T03:37:34.058Z,3.40
2019-01-31T03:40:29.000Z,3.40
2019-01-31T03:43:39.875Z,3.40
2019-01-31T03:46:41.791Z,3.50
2019-01-31T03:50:06.799Z,3.50
2019-01-31T03:53:25.106Z,3.50
2019-01-31T03:56:33.870Z,3.50
2019-01-31T03:59:40.229Z,3.50
2019-01-31T04:02:42.149Z,3.50
2019-01-31T04:05:36.743Z,3.50
2019-01-31T04:08:06.725Z,3.50
2019-01-31T04:10:36.317Z,3.50
2019-01-31T04:13:06.345Z,3.50
2019-01-31T04:15:36.008Z,3.50
2019-01-31T04:18:06.270Z,3.60
2019-01-31T04:20:35.924Z,3.60
2019-01-31T04:23:05.723Z,3.60
2019-01-31T04:25:35.344Z,3.60
2019-01-31T04:28:05.372Z,3.60
2019-01-31T04:30:35.087Z,3.60
2019-01-31T04:33:04.767Z,3.60
2019-01-31T04:35:34.408Z,3.60
2019-01-31T04:38:04.004Z,3.60
2019-01-31T04:40:33.603Z,3.60
2019-01-31T04:43:03.270Z,3.60
2019-01-31T04:45:32.876Z,3.60
2019-01-31T04:48:02.488Z,3.70
2019-01-31T04:50:32.170Z,3.70
2019-01-31T04:53:01.764Z,3.70
2019-01-31T04:55:31.411Z,3.70
2019-01-31T04:58:01.036Z,3.70
2019-01-31T05:00:30.642Z,3.70
2019-01-31T05:03:00.234Z,3.70
2019-01-31T05:05:29.889Z,3.70
2019-01-31T05:07:59.475Z,3.70
2019-01-31T05:10:29.105Z,3.60
2019-01-31T05:12:58.783Z,3.60
2019-01-31T05:15:28.383Z,3.60
2019-01-31T05:17:57.954Z,3.60
2019-01-31T05:20:27.655Z,3.60
2019-01-31T05:22:57.254Z,3.50
2019-01-31T05:25:26.867Z,3.50
2019-01-31T05:27:56.501Z,3.50
2019-01-31T05:30:26.355Z,3.50
2019-01-31T05:32:58.946Z,3.50
2019-01-31T05:35:27.408Z,3.50
2019-01-31T05:37:57.066Z,3.50
2019-01-31T05:40:26.699Z,3.50
2019-01-31T05:42:56.368Z,3.50
2019-01-31T05:45:25.998Z,3.40
2019-01-31T05:47:55.625Z,3.30
2019-01-31T05:50:25.275Z,3.30
2019-01-31T05:52:54.869Z,3.30
2019-01-31T05:55:24.466Z,3.30
2019-01-31T05:57:54.134Z,3.30
2019-01-31T06:00:28.803Z,3.20
2019-01-31T06:02:58.442Z,3.20
2019-01-31T06:05:28.098Z,3.10
2019-01-31T06:07:57.785Z,3.10
2019-01-31T06:10:27.369Z,3.00
2019-01-31T06:12:57.010Z,3.10
2019-01-31T06:15:26.677Z,3.20
2019-01-31T06:17:56.330Z,3.20
2019-01-31T06:20:26.806Z,3.10
2019-01-31T06:22:56.411Z,3.10
2019-01-31T06:25:26.044Z,3.10
2019-01-31T06:27:55.691Z,3.10
2019-01-31T06:30:25.332Z,3.20
2019-01-31T06:32:54.935Z,3.10
2019-01-31T06:35:24.932Z,3.10
2019-01-31T06:37:54.668Z,3.00
2019-01-31T06:40:24.365Z,3.10
2019-01-31T06:42:53.985Z,3.00
2019-01-31T06:45:23.902Z,3.00
2019-01-31T06:47:53.591Z,3.00
2019-01-31T06:50:23.216Z,2.90
2019-01-31T06:53:00.072Z,2.70
2019-01-31T06:55:29.871Z,2.60
2019-01-31T06:58:00.260Z,2.60
2019-01-31T07:00:29.998Z,2.60
2019-01-31T07:02:59.718Z,2.70
2019-01-31T07:05:29.427Z,2.80
2019-01-31T07:07:59.647Z,2.90
2019-01-31T07:10:35.444Z,3.00
2019-01-31T07:13:12.939Z,3.00
2019-01-31T07:15:47.261Z,3.00
2019-01-31T07:18:22.881Z,3.10
2019-01-31T07:20:56.084Z,3.10
2019-01-31T07:23:25.763Z,3.10
2019-01-31T07:25:56.168Z,3.10
2019-01-31T07:28:27.186Z,3.20
2019-01-31T07:30:58.008Z,3.20
2019-01-31T07:33:29.784Z,3.20
2019-01-31T07:36:00.179Z,3.30
2019-01-31T07:38:31.750Z,3.30
2019-01-31T07:41:03.446Z,3.30
2019-01-31T07:43:33.944Z,3.40
2019-01-31T07:46:10.347Z,3.40
2019-01-31T07:48:42.113Z,3.40
2019-01-31T07:51:14.314Z,3.40
2019-01-31T07:53:47.690Z,3.40
2019-01-31T07:57:24.865Z,3.40
2019-01-31T08:02:33.633Z,3.40
2019-01-31T08:05:07.541Z,3.40
2019-01-31T08:07:41.919Z,3.50
2019-01-31T08:16:58.335Z,3.60
2019-01-31T08:19:30.242Z,3.60
2019-01-31T08:22:02.394Z,3.70
2019-01-31T08:24:33.897Z,3.80
2019-01-31T08:27:07.322Z,3.90
2019-01-31T08:29:39.231Z,3.90
2019-01-31T08:32:10.447Z,3.90
2019-01-31T08:34:42.392Z,3.90
2019-01-31T08:37:15.352Z,3.90
2019-01-31T08:39:48.248Z,3.90
2019-01-31T08:42:21.204Z,3.90
2019-01-31T08:44:53.587Z,3.90
2019-01-31T08:47:26.093Z,3.90
2019-01-31T08:49:58.392Z,3.90
2019-01-31T08:52:31.288Z,3.90
2019-01-31T08:55:04.867Z,3.90
2019-01-31T08:57:37.002Z,3.90
2019-01-31T09:00:12.660Z,3.90
2019-01-31T09:02:45.911Z,4.00
2019-01-31T09:05:19.328Z,3.90
2019-01-31T09:07:51.906Z,3.90
2019-01-31T09:10:28.000Z,4.00
2019-01-31T09:13:02.313Z,3.90
2019-01-31T09:15:35.393Z,3.90
2019-01-31T09:18:08.802Z,4.00
2019-01-31T09:20:50.046Z,4.00
2019-01-31T09:23:48.376Z,4.10
2019-01-31T09:27:15.439Z,4.10
2019-01-31T09:30:23.450Z,4.20
2019-01-31T09:33:44.525Z,4.20
2019-01-31T09:36:37.255Z,4.20
2019-01-31T09:39:24.138Z,4.20
2019-01-31T09:42:26.751Z,4.30
2019-01-31T09:45:39.735Z,4.20
2019-01-31T09:48:23.208Z,4.30
2019-01-31T09:51:24.151Z,4.30
2019-01-31T09:54:15.841Z,4.40
2019-01-31T09:57:33.796Z,4.30
2019-01-31T10:00:27.868Z,4.40
2019-01-31T10:03:30.105Z,4.40
2019-01-31T10:06:46.478Z,4.40
2019-01-31T10:09:43.271Z,4.40
2019-01-31T10:12:38.809Z,4.30
2019-01-31T10:15:29.680Z,4.30
2019-01-31T10:18:29.387Z,4.30
2019-01-31T10:21:38.744Z,4.40
2019-01-31T10:25:04.186Z,4.50
2019-01-31T10:28:08.724Z,4.60
2019-01-31T10:30:58.529Z,4.60
2019-01-31T10:34:03.473Z,4.70
2019-01-31T10:37:41.909Z,4.60
2019-01-31T10:40:40.728Z,4.50
2019-01-31T10:43:24.554Z,4.40
2019-01-31T10:46:16.030Z,4.50
2019-01-31T10:49:06.490Z,4.50
2019-01-31T10:52:10.401Z,4.50
2019-01-31T10:55:33.962Z,4.50
2019-01-31T10:58:59.789Z,4.50
2019-01-31T11:01:49.854Z,4.50
2019-01-31T11:05:07.867Z,4.50
2019-01-31T11:11:36.312Z,4.60
2019-01-31T11:14:41.362Z,4.70
2019-01-31T11:17:47.242Z,4.70
2019-01-31T11:20:43.254Z,4.80
2019-01-31T11:23:36.575Z,4.70
2019-01-31T11:26:38.513Z,4.70
2019-01-31T11:29:44.572Z,4.80
2019-01-31T11:32:40.332Z,4.70
2019-01-31T11:35:45.468Z,4.70
2019-01-31T11:38:54.828Z,4.70
2019-01-31T11:42:18.255Z,4.80
2019-01-31T11:45:29.635Z,4.80
2019-01-31T11:48:22.238Z,4.70
2019-01-31T11:51:27.474Z,4.60
2019-01-31T11:54:24.098Z,4.60
2019-01-31T11:57:50.899Z,4.60
2019-01-31T12:00:23.215Z,4.60
2019-01-31T12:02:55.027Z,4.60
2019-01-31T12:05:25.803Z,4.60
2019-01-31T12:07:57.175Z,4.70
2019-01-31T12:10:28.100Z,4.70
2019-01-31T12:12:58.477Z,4.70
2019-01-31T12:15:28.492Z,4.80
2019-01-31T12:17:58.705Z,4.80
2019-01-31T12:20:28.731Z,4.80
2019-01-31T12:22:58.372Z,4.80
2019-01-31T12:25:29.927Z,4.80
2019-01-31T12:27:59.558Z,4.90
2019-01-31T12:30:32.355Z,4.90
2019-01-31T12:33:02.664Z,4.90
2019-01-31T12:35:32.295Z,5.00
2019-01-31T12:38:01.882Z,5.10
2019-01-31T12:40:31.490Z,5.30
2019-01-31T12:43:02.682Z,5.50
2019-01-31T12:45:32.499Z,5.70
2019-01-31T12:48:03.490Z,5.80
2019-01-31T12:50:34.578Z,5.80
2019-01-31T12:53:08.437Z,5.70
2019-01-31T12:55:38.995Z,5.60
2019-01-31T12:58:09.033Z,5.50
2019-01-31T13:00:40.095Z,5.50
2019-01-31T13:03:11.089Z,5.50
2019-01-31T13:05:42.564Z,5.40
2019-01-31T13:08:12.644Z,5.30
2019-01-31T13:10:43.427Z,5.30
2019-01-31T13:13:13.082Z,5.20
2019-01-31T13:16:33.748Z,5.10
2019-01-31T13:19:03.624Z,5.20
2019-01-31T13:21:35.415Z,5.20
2019-01-31T13:24:05.762Z,5.20
2019-01-31T13:26:35.460Z,5.20
2019-01-31T13:29:05.357Z,5.10
2019-01-31T13:31:34.976Z,5.20
2019-01-31T13:34:05.236Z,5.10
2019-01-31T13:36:34.882Z,5.20
2019-01-31T13:39:08.120Z,5.20
2019-01-31T13:41:41.739Z,5.30
2019-01-31T13:44:09.971Z,5.40
2019-01-31T13:46:39.581Z,5.60
2019-01-31T13:49:09.187Z,6.20
2019-01-31T13:51:38.765Z,6.60
2019-01-31T13:54:08.457Z,6.80
2019-01-31T13:56:45.321Z,7.50
2019-01-31T13:59:11.118Z,8.50
2019-01-31T14:01:41.974Z,9.10
2019-01-31T14:04:11.980Z,9.80
2019-01-31T14:06:41.596Z,10.90
2019-01-31T14:09:11.899Z,11.80
2019-01-31T14:11:41.534Z,12.50
2019-01-31T14:14:11.238Z,13.00
2019-01-31T14:16:47.821Z,13.90
2019-01-31T14:19:12.336Z,14.50
2019-01-31T14:21:44.108Z,13.60
2019-01-31T14:24:13.382Z,12.60
2019-01-31T14:26:43.124Z,13.30
2019-01-31T14:29:12.740Z,14.30
2019-01-31T14:31:42.414Z,15.20
2019-01-31T14:34:11.980Z,14.90
2019-01-31T14:36:41.693Z,15.20
2019-01-31T14:39:12.008Z,15.60
2019-01-31T14:41:41.883Z,14.80
2019-01-31T14:44:20.143Z,13.90
2019-01-31T14:46:42.801Z,12.90
2019-01-31T14:49:12.438Z,12.80
2019-01-31T14:51:42.094Z,12.20
2019-01-31T14:54:11.787Z,11.80
2019-01-31T14:56:41.815Z,11.50
2019-01-31T14:59:11.904Z,11.00
2019-01-31T15:01:41.469Z,11.30
2019-01-31T15:04:11.071Z,11.50
2019-01-31T15:06:40.789Z,11.30
2019-01-31T15:09:11.032Z,10.70
2019-01-31T15:11:42.574Z,10.20
2019-01-31T15:14:14.314Z,10.60
2019-01-31T15:16:45.819Z,10.50
2019-01-31T15:19:15.388Z,10.20
2019-01-31T15:21:46.888Z,10.30
2019-01-31T15:24:18.020Z,10.20
2019-01-31T15:26:50.644Z,9.70
2019-01-31T15:29:21.743Z,9.50
2019-01-31T15:31:51.965Z,8.90
2019-01-31T15:34:22.488Z,8.90
2019-01-31T15:36:53.390Z,8.50
2019-01-31T15:39:22.980Z,8.00
2019-01-31T15:41:54.033Z,7.50
2019-01-31T15:44:25.354Z,7.10
2019-01-31T15:46:55.968Z,6.70
2019-01-31T15:49:27.265Z,6.50
2019-01-31T15:51:58.219Z,6.30
2019-01-31T15:54:27.867Z,6.20
2019-01-31T15:56:57.471Z,6.10
2019-01-31T15:59:27.382Z,5.90
2019-01-31T16:01:56.988Z,5.80
2019-01-31T16:04:26.774Z,5.60
2019-01-31T16:06:56.434Z,5.50
2019-01-31T16:09:26.088Z,5.40
2019-01-31T16:11:55.677Z,5.30
2019-01-31T16:14:25.429Z,5.20
2019-01-31T16:16:55.098Z,5.10
2019-01-31T16:19:24.686Z,5.00
2019-01-31T16:21:54.328Z,5.00
2019-01-31T16:24:23.983Z,4.90
2019-01-31T16:26:53.637Z,4.90
2019-01-31T16:29:23.312Z,4.90
2019-01-31T16:31:52.930Z,5.00
2019-01-31T16:34:22.549Z,4.90
2019-01-31T16:36:52.168Z,4.90
2019-01-31T16:39:21.853Z,4.80
2019-01-31T16:41:51.484Z,4.70
2019-01-31T16:44:21.094Z,4.60
2019-01-31T16:46:50.701Z,4.60
2019-01-31T16:49:20.323Z,4.50
2019-01-31T16:51:49.963Z,4.40
2019-01-31T16:54:19.588Z,4.40
2019-01-31T16:56:49.185Z,4.30
2019-01-31T16:59:18.851Z,4.30
2019-01-31T17:01:48.478Z,4.20
2019-01-31T17:04:18.129Z,4.30
2019-01-31T17:06:47.898Z,4.30
2019-01-31T17:09:17.511Z,4.40
2019-01-31T17:11:47.209Z,4.50
2019-01-31T17:14:16.911Z,4.50
2019-01-31T17:16:46.507Z,4.50
2019-01-31T17:19:16.160Z,4.50
2019-01-31T17:21:45.828Z,4.50
2019-01-31T17:24:15.427Z,4.50
2019-01-31T17:26:45.075Z,4.60
2019-01-31T17:29:14.790Z,4.60
2019-01-31T17:31:44.955Z,4.60
2019-01-31T17:34:14.549Z,4.60
2019-01-31T17:36:45.960Z,4.50
2019-01-31T17:39:15.501Z,4.50
2019-01-31T17:41:45.091Z,4.50
2019-01-31T17:44:14.738Z,4.50
2019-01-31T17:46:44.354Z,4.60
2019-01-31T17:49:13.994Z,4.60
2019-01-31T17:51:43.659Z,4.60
2019-01-31T17:54:13.293Z,4.60
2019-01-31T17:56:42.906Z,4.60
2019-01-31T17:59:12.524Z,4.60
2019-01-31T18:01:42.133Z,4.60
2019-01-31T18:04:11.854Z,4.60
2019-01-31T18:06:41.527Z,4.50
2019-01-31T18:09:11.312Z,4.50
2019-01-31T18:11:40.924Z,4.50
2019-01-31T18:14:10.580Z,4.50
2019-01-31T18:16:40.228Z,4.50
2019-01-31T18:19:09.793Z,4.50
2019-01-31T18:21:39.484Z,4.50
2019-01-31T18:24:09.091Z,4.50
2019-01-31T18:26:38.709Z,4.50
2019-01-31T18:29:08.427Z,4.50
2019-01-31T18:31:38.066Z,4.50
2019-01-31T18:34:07.789Z,4.50
2019-01-31T18:36:37.418Z,4.50
2019-01-31T18:39:09.423Z,4.50
2019-01-31T18:41:39.116Z,4.50
2019-01-31T18:44:11.049Z,4.40
2019-01-31T18:46:40.120Z,4.40
2019-01-31T18:49:09.908Z,4.40
2019-01-31T18:51:39.728Z,4.40
2019-01-31T18:54:10.934Z,4.40
2019-01-31T18:56:40.605Z,4.40
2019-01-31T18:59:10.250Z,4.40
2019-01-31T19:01:39.872Z,4.40
2019-01-31T19:04:09.566Z,4.40
2019-01-31T19:06:39.187Z,4.30
2019-01-31T19:09:09.741Z,4.40
2019-01-31T19:11:39.353Z,4.40
2019-01-31T19:14:09.096Z,4.40
2019-01-31T19:16:38.710Z,4.40
2019-01-31T19:19:08.494Z,4.40
2019-01-31T19:21:38.371Z,4.40
2019-01-31T19:24:08.230Z,4.40
2019-01-31T19:26:37.839Z,4.40
2019-01-31T19:29:07.844Z,4.30
2019-01-31T19:31:40.231Z,4.30
2019-01-31T19:34:08.784Z,4.30
2019-01-31T19:36:38.444Z,4.40
2019-01-31T19:39:14.303Z,4.40
2019-01-31T19:41:43.940Z,4.40
2019-01-31T19:44:13.599Z,4.40
2019-01-31T19:46:43.225Z,4.30
2019-01-31T19:49:12.891Z,4.30
2019-01-31T19:51:42.441Z,4.30
2019-01-31T19:54:12.106Z,4.30
2019-01-31T19:56:41.771Z,4.30
2019-01-31T19:59:11.400Z,4.30
2019-01-31T20:01:41.101Z,4.20
2019-01-31T20:04:10.766Z,4.10
2019-01-31T20:06:40.432Z,4.00
2019-01-31T20:09:19.216Z,3.90
2019-01-31T20:11:48.847Z,4.00
2019-01-31T20:14:18.480Z,4.00
2019-01-31T20:16:48.132Z,4.00
2019-01-31T20:19:17.790Z,4.00
2019-01-31T20:21:47.360Z,4.10
2019-01-31T20:24:17.077Z,4.10
2019-01-31T20:26:46.669Z,4.10
2019-01-31T20:29:16.283Z,4.20
2019-01-31T20:31:45.921Z,4.20
2019-01-31T20:34:15.606Z,4.20
2019-01-31T20:36:45.276Z,4.20
2019-01-31T20:39:14.934Z,4.20
2019-01-31T20:41:53.748Z,4.20
2019-01-31T20:44:15.810Z,4.20
2019-01-31T20:46:45.431Z,4.20
2019-01-31T20:49:15.086Z,4.20
2019-01-31T20:51:44.727Z,4.20
2019-01-31T20:54:14.394Z,4.30
2019-01-31T20:56:43.992Z,4.20
2019-01-31T20:59:13.675Z,4.30
2019-01-31T21:01:43.284Z,4.20
2019-01-31T21:04:12.870Z,4.20
2019-01-31T21:06:42.654Z,4.20
2019-01-31T21:09:12.387Z,4.20
2019-01-31T21:11:42.046Z,4.20
2019-01-31T21:14:11.694Z,4.20
2019-01-31T21:16:51.442Z,4.20
2019-01-31T21:19:12.653Z,4.20
2019-01-31T21:21:42.345Z,4.20
2019-01-31T21:24:11.951Z,4.20
2019-01-31T21:26:41.579Z,4.20
2019-01-31T21:29:11.230Z,4.20
2019-01-31T21:31:40.939Z,4.20
2019-01-31T21:34:10.563Z,4.20
2019-01-31T21:36:40.207Z,4.20
2019-01-31T21:39:10.514Z,4.20
2019-01-31T21:41:40.135Z,4.20
2019-01-31T21:44:09.893Z,4.20
2019-01-31T21:46:39.548Z,4.20
2019-01-31T21:49:09.164Z,4.10
2019-01-31T21:51:38.808Z,4.10
2019-01-31T21:54:08.511Z,4.10
2019-01-31T21:56:38.618Z,4.20
2019-01-31T21:59:08.929Z,4.20
2019-01-31T22:01:38.685Z,4.20
2019-01-31T22:04:08.799Z,4.20
2019-01-31T22:06:38.430Z,4.20
2019-01-31T22:09:10.122Z,4.20
2019-01-31T22:11:39.744Z,4.10
2019-01-31T22:14:09.428Z,4.10
2019-01-31T22:16:39.081Z,4.10
2019-01-31T22:19:08.796Z,4.10
2019-01-31T22:21:38.453Z,4.10
2019-01-31T22:24:08.171Z,4.10
2019-01-31T22:26:37.733Z,4.10
2019-01-31T22:29:08.410Z,4.10
2019-01-31T22:31:38.163Z,4.10
2019-01-31T22:34:07.727Z,4.10
2019-01-31T22:36:37.425Z,4.10
2019-01-31T22:39:08.957Z,4.00
2019-01-31T22:41:38.602Z,4.00
2019-01-31T22:44:08.336Z,3.90
2019-01-31T22:46:37.976Z,3.80
2019-01-31T22:49:07.723Z,3.70
2019-01-31T22:51:37.676Z,3.60
2019-01-31T22:54:07.707Z,3.40
2019-01-31T22:56:37.315Z,3.40
2019-01-31T22:59:07.225Z,3.30
2019-01-31T23:02:01.807Z,3.20
2019-01-31T23:04:31.433Z,3.10
2019-01-31T23:07:01.042Z,3.10
2019-01-31T23:09:30.653Z,3.10
2019-01-31T23:12:00.305Z,3.00
2019-01-31T23:14:29.907Z,3.00
2019-01-31T23:16:59.497Z,3.00
2019-01-31T23:19:29.162Z,2.90
2019-01-31T23:21:58.786Z,2.90
2019-01-31T23:24:28.419Z,2.80
2019-01-31T23:26:58.093Z,2.80
2019-01-31T23:29:27.695Z,2.70
2019-01-31T23:31:57.291Z,2.70
2019-01-31T23:34:27.019Z,2.60
2019-01-31T23:36:56.567Z,2.60
2019-01-31T23:39:26.196Z,2.60
2019-01-31T23:41:55.901Z,2.60
2019-01-31T23:44:25.529Z,2.60
2019-01-31T23:46:55.124Z,2.50
2019-01-31T23:49:24.760Z,2.50
2019-01-31T23:51:54.423Z,2.50
2019-01-31T23:54:24.102Z,2.50
2019-01-31T23:56:53.792Z,2.50
2019-01-31T23:59:27.479Z,2.40
